sensor_id;sensor_type;location;lat;lon;timestamp;P1;durP1;ratioP1;P2;durP2;ratioP2
71162;SDS011;58858;50.948;6.566;2022-08-14T00:07:09;9.60;;;2.20;;
71162;SDS011;58858;50.948;6.566;2022-08-14T00:17:11;3.13;;;2.28;;
71162;SDS011;58858;50.948;6.566;2022-08-14T00:27:12;4.32;;;2.17;;
71162;SDS011;58858;50.948;6.566;2022-08-14T00:37:14;5.93;;;2.35;;
71162;SDS011;58858;50.948;6.566;2022-08-14T00:47:17;3.10;;;2.35;;
71162;SDS011;58858;50.948;6.566;2022-08-14T00:57:19;2.13;;;1.92;;
71162;SDS011;58858;50.948;6.566;2022-08-14T01:07:25;4.43;;;2.60;;
71162;SDS011;58858;50.948;6.566;2022-08-14T01:17:30;2.97;;;2.33;;
71162;SDS011;58858;50.948;6.566;2022-08-14T01:27:50;5.75;;;3.30;;
71162;SDS011;58858;50.948;6.566;2022-08-14T01:37:58;4.25;;;3.10;;
71162;SDS011;58858;50.948;6.566;2022-08-14T01:47:59;7.63;;;3.15;;
71162;SDS011;58858;50.948;6.566;2022-08-14T01:58:01;5.93;;;3.03;;
71162;SDS011;58858;50.948;6.566;2022-08-14T02:08:02;4.60;;;2.95;;
71162;SDS011;58858;50.948;6.566;2022-08-14T02:18:03;4.28;;;3.20;;
71162;SDS011;58858;50.948;6.566;2022-08-14T02:28:04;3.83;;;2.80;;
71162;SDS011;58858;50.948;6.566;2022-08-14T02:38:07;7.75;;;3.25;;
71162;SDS011;58858;50.948;6.566;2022-08-14T02:48:09;6.97;;;3.97;;
71162;SDS011;58858;50.948;6.566;2022-08-14T02:58:12;4.65;;;3.63;;
71162;SDS011;58858;50.948;6.566;2022-08-14T03:08:14;6.82;;;3.55;;
71162;SDS011;58858;50.948;6.566;2022-08-14T03:18:15;7.93;;;4.03;;
71162;SDS011;58858;50.948;6.566;2022-08-14T03:28:17;7.45;;;3.97;;
71162;SDS011;58858;50.948;6.566;2022-08-14T03:38:18;7.38;;;4.43;;
71162;SDS011;58858;50.948;6.566;2022-08-14T03:48:19;4.90;;;4.10;;
71162;SDS011;58858;50.948;6.566;2022-08-14T03:58:23;5.25;;;3.78;;
71162;SDS011;58858;50.948;6.566;2022-08-14T04:08:24;6.68;;;3.85;;
71162;SDS011;58858;50.948;6.566;2022-08-14T04:18:25;5.82;;;4.32;;
71162;SDS011;58858;50.948;6.566;2022-08-14T04:28:27;3.95;;;3.20;;
71162;SDS011;58858;50.948;6.566;2022-08-14T04:38:28;4.38;;;3.40;;
71162;SDS011;58858;50.948;6.566;2022-08-14T04:48:49;5.70;;;3.50;;
71162;SDS011;58858;50.948;6.566;2022-08-14T04:58:51;5.57;;;3.85;;
71162;SDS011;58858;50.948;6.566;2022-08-14T05:08:57;9.15;;;4.03;;
71162;SDS011;58858;50.948;6.566;2022-08-14T05:18:58;6.93;;;4.07;;
71162;SDS011;58858;50.948;6.566;2022-08-14T05:29:03;7.00;;;4.50;;
71162;SDS011;58858;50.948;6.566;2022-08-14T05:39:11;6.30;;;4.75;;
71162;SDS011;58858;50.948;6.566;2022-08-14T05:49:12;7.03;;;3.95;;
71162;SDS011;58858;50.948;6.566;2022-08-14T05:59:13;4.85;;;3.85;;
71162;SDS011;58858;50.948;6.566;2022-08-14T06:09:14;7.05;;;4.95;;
71162;SDS011;58858;50.948;6.566;2022-08-14T06:19:16;6.28;;;5.10;;
71162;SDS011;58858;50.948;6.566;2022-08-14T06:29:17;7.47;;;5.70;;
71162;SDS011;58858;50.948;6.566;2022-08-14T06:39:18;6.30;;;5.15;;
71162;SDS011;58858;50.948;6.566;2022-08-14T06:49:20;5.97;;;5.38;;
71162;SDS011;58858;50.948;6.566;2022-08-14T06:59:21;6.40;;;5.80;;
71162;SDS011;58858;50.948;6.566;2022-08-14T07:09:22;7.55;;;5.65;;
71162;SDS011;58858;50.948;6.566;2022-08-14T07:19:23;6.57;;;5.45;;
71162;SDS011;58858;50.948;6.566;2022-08-14T07:29:24;7.97;;;5.65;;
71162;SDS011;58858;50.948;6.566;2022-08-14T07:39:25;5.53;;;4.97;;
71162;SDS011;58858;50.948;6.566;2022-08-14T07:49:26;5.88;;;5.28;;
71162;SDS011;58858;50.948;6.566;2022-08-14T07:59:28;6.70;;;5.80;;
71162;SDS011;58858;50.948;6.566;2022-08-14T08:09:29;7.20;;;5.82;;
71162;SDS011;58858;50.948;6.566;2022-08-14T08:19:32;7.95;;;5.75;;
71162;SDS011;58858;50.948;6.566;2022-08-14T08:29:33;7.18;;;5.60;;
71162;SDS011;58858;50.948;6.566;2022-08-14T08:39:44;8.30;;;5.60;;
71162;SDS011;58858;50.948;6.566;2022-08-14T08:49:46;9.82;;;5.80;;
71162;SDS011;58858;50.948;6.566;2022-08-14T08:59:47;6.90;;;5.13;;
71162;SDS011;58858;50.948;6.566;2022-08-14T09:09:48;9.90;;;5.05;;
71162;SDS011;58858;50.948;6.566;2022-08-14T09:19:56;4.90;;;4.40;;
71162;SDS011;58858;50.948;6.566;2022-08-14T09:29:58;6.00;;;4.22;;
71162;SDS011;58858;50.948;6.566;2022-08-14T09:40:21;5.97;;;4.30;;
71162;SDS011;58858;50.948;6.566;2022-08-14T09:50:42;12.13;;;5.20;;
71162;SDS011;58858;50.948;6.566;2022-08-14T10:00:54;4.07;;;3.70;;
71162;SDS011;58858;50.948;6.566;2022-08-14T10:11:00;7.05;;;4.57;;
71162;SDS011;58858;50.948;6.566;2022-08-14T10:21:17;7.28;;;3.90;;
71162;SDS011;58858;50.948;6.566;2022-08-14T10:41:33;7.32;;;3.72;;
71162;SDS011;58858;50.948;6.566;2022-08-14T10:51:35;3.85;;;3.55;;
71162;SDS011;58858;50.948;6.566;2022-08-14T11:01:37;5.35;;;4.07;;
71162;SDS011;58858;50.948;6.566;2022-08-14T11:11:41;5.00;;;3.53;;
71162;SDS011;58858;50.948;6.566;2022-08-14T11:21:43;2.55;;;2.35;;
71162;SDS011;58858;50.948;6.566;2022-08-14T11:31:44;3.80;;;3.50;;
71162;SDS011;58858;50.948;6.566;2022-08-14T11:41:46;3.37;;;3.07;;
71162;SDS011;58858;50.948;6.566;2022-08-14T11:51:51;4.72;;;3.97;;
71162;SDS011;58858;50.948;6.566;2022-08-14T12:01:55;4.97;;;3.30;;
71162;SDS011;58858;50.948;6.566;2022-08-14T12:11:56;3.23;;;2.90;;
71162;SDS011;58858;50.948;6.566;2022-08-14T12:21:57;4.43;;;2.80;;
71162;SDS011;58858;50.948;6.566;2022-08-14T12:31:59;3.83;;;2.73;;
71162;SDS011;58858;50.948;6.566;2022-08-14T12:42:06;4.35;;;2.67;;
71162;SDS011;58858;50.948;6.566;2022-08-14T12:52:07;3.97;;;2.97;;
71162;SDS011;58858;50.948;6.566;2022-08-14T13:02:19;7.28;;;2.92;;
71162;SDS011;58858;50.948;6.566;2022-08-14T13:12:22;5.30;;;2.60;;
71162;SDS011;58858;50.948;6.566;2022-08-14T13:22:28;4.65;;;3.10;;
71162;SDS011;58858;50.948;6.566;2022-08-14T13:32:29;7.93;;;3.17;;
71162;SDS011;58858;50.948;6.566;2022-08-14T13:42:32;10.52;;;3.50;;
71162;SDS011;58858;50.948;6.566;2022-08-14T13:52:44;4.97;;;3.00;;
71162;SDS011;58858;50.948;6.566;2022-08-14T14:02:56;5.78;;;3.00;;
71162;SDS011;58858;50.948;6.566;2022-08-14T14:12:58;4.95;;;2.95;;
71162;SDS011;58858;50.948;6.566;2022-08-14T14:23:00;3.53;;;2.93;;
71162;SDS011;58858;50.948;6.566;2022-08-14T14:33:01;4.57;;;3.25;;
71162;SDS011;58858;50.948;6.566;2022-08-14T14:43:04;5.63;;;3.50;;
71162;SDS011;58858;50.948;6.566;2022-08-14T14:53:10;4.68;;;2.88;;
71162;SDS011;58858;50.948;6.566;2022-08-14T15:03:13;3.17;;;2.88;;
71162;SDS011;58858;50.948;6.566;2022-08-14T15:13:14;4.07;;;2.80;;
71162;SDS011;58858;50.948;6.566;2022-08-14T15:23:16;4.37;;;2.70;;
71162;SDS011;58858;50.948;6.566;2022-08-14T15:33:17;3.08;;;2.60;;
71162;SDS011;58858;50.948;6.566;2022-08-14T15:43:38;4.70;;;2.88;;
71162;SDS011;58858;50.948;6.566;2022-08-14T15:53:40;4.40;;;2.97;;
71162;SDS011;58858;50.948;6.566;2022-08-14T16:03:41;3.13;;;2.55;;
71162;SDS011;58858;50.948;6.566;2022-08-14T16:13:42;3.10;;;2.80;;
71162;SDS011;58858;50.948;6.566;2022-08-14T16:23:45;3.00;;;2.70;;
71162;SDS011;58858;50.948;6.566;2022-08-14T16:33:47;3.83;;;3.07;;
71162;SDS011;58858;50.948;6.566;2022-08-14T16:43:48;3.28;;;3.00;;
71162;SDS011;58858;50.948;6.566;2022-08-14T16:53:52;4.07;;;2.97;;
71162;SDS011;58858;50.948;6.566;2022-08-14T17:14:07;3.50;;;3.20;;
71162;SDS011;58858;50.948;6.566;2022-08-14T17:24:12;7.03;;;5.22;;
71162;SDS011;58858;50.948;6.566;2022-08-14T17:34:15;5.43;;;3.90;;
71162;SDS011;58858;50.948;6.566;2022-08-14T17:44:21;6.77;;;4.90;;
71162;SDS011;58858;50.948;6.566;2022-08-14T17:54:22;15.57;;;11.55;;
71162;SDS011;58858;50.948;6.566;2022-08-14T18:04:26;11.45;;;9.55;;
71162;SDS011;58858;50.948;6.566;2022-08-14T18:14:28;4.90;;;3.83;;
71162;SDS011;58858;50.948;6.566;2022-08-14T18:24:30;8.40;;;4.18;;
71162;SDS011;58858;50.948;6.566;2022-08-14T18:34:35;5.68;;;4.22;;
71162;SDS011;58858;50.948;6.566;2022-08-14T18:54:50;4.90;;;4.07;;
71162;SDS011;58858;50.948;6.566;2022-08-14T19:04:52;5.25;;;4.50;;
71162;SDS011;58858;50.948;6.566;2022-08-14T19:14:57;4.82;;;3.38;;
71162;SDS011;58858;50.948;6.566;2022-08-14T19:25:10;5.97;;;3.55;;
71162;SDS011;58858;50.948;6.566;2022-08-14T19:45:36;8.15;;;3.95;;
71162;SDS011;58858;50.948;6.566;2022-08-14T20:05:44;6.43;;;3.10;;
71162;SDS011;58858;50.948;6.566;2022-08-14T20:15:45;4.25;;;3.60;;
71162;SDS011;58858;50.948;6.566;2022-08-14T20:25:47;5.38;;;4.05;;
71162;SDS011;58858;50.948;6.566;2022-08-14T20:35:48;4.28;;;3.58;;
71162;SDS011;58858;50.948;6.566;2022-08-14T20:45:51;7.32;;;4.05;;
71162;SDS011;58858;50.948;6.566;2022-08-14T20:55:52;5.05;;;3.28;;
71162;SDS011;58858;50.948;6.566;2022-08-14T21:05:59;5.60;;;4.00;;
71162;SDS011;58858;50.948;6.566;2022-08-14T21:16:03;3.95;;;3.58;;
71162;SDS011;58858;50.948;6.566;2022-08-14T21:26:08;4.40;;;4.00;;
71162;SDS011;58858;50.948;6.566;2022-08-14T21:36:10;6.68;;;3.67;;
71162;SDS011;58858;50.948;6.566;2022-08-14T21:46:11;10.60;;;3.83;;
71162;SDS011;58858;50.948;6.566;2022-08-14T21:56:16;10.27;;;4.15;;
71162;SDS011;58858;50.948;6.566;2022-08-14T22:06:17;5.40;;;3.47;;
71162;SDS011;58858;50.948;6.566;2022-08-14T22:16:18;8.88;;;3.53;;
71162;SDS011;58858;50.948;6.566;2022-08-14T22:26:23;7.20;;;3.88;;
71162;SDS011;58858;50.948;6.566;2022-08-14T22:36:24;6.38;;;3.72;;
71162;SDS011;58858;50.948;6.566;2022-08-14T22:46:44;8.73;;;4.13;;
71162;SDS011;58858;50.948;6.566;2022-08-14T22:56:45;7.35;;;3.80;;
71162;SDS011;58858;50.948;6.566;2022-08-14T23:06:47;5.57;;;3.30;;
71162;SDS011;58858;50.948;6.566;2022-08-14T23:16:49;7.10;;;3.97;;
71162;SDS011;58858;50.948;6.566;2022-08-14T23:26:52;5.38;;;3.15;;
71162;SDS011;58858;50.948;6.566;2022-08-14T23:36:55;19.70;;;3.25;;
71162;SDS011;58858;50.948;6.566;2022-08-14T23:46:57;10.63;;;2.88;;
71162;SDS011;58858;50.948;6.566;2022-08-14T23:56:58;9.55;;;2.90;;
